createdAt,value
2018-08-13T00:01:52.076Z,27.90
2018-08-13T00:04:21.344Z,27.90
2018-08-13T00:06:51.131Z,27.90
2018-08-13T00:09:51.053Z,27.90
2018-08-13T00:12:20.299Z,28.00
2018-08-13T00:14:49.520Z,28.00
2018-08-13T00:17:18.843Z,28.00
2018-08-13T00:19:48.342Z,27.90
2018-08-13T00:22:17.641Z,27.90
2018-08-13T00:24:47.034Z,27.90
2018-08-13T00:27:16.351Z,28.00
2018-08-13T00:29:45.680Z,27.90
2018-08-13T00:32:15.037Z,27.90
2018-08-13T00:34:44.427Z,27.90
2018-08-13T00:37:14.158Z,27.90
2018-08-13T00:39:43.536Z,27.90
2018-08-13T00:42:12.888Z,27.90
2018-08-13T00:44:42.248Z,27.90
2018-08-13T00:47:11.577Z,27.90
2018-08-13T00:49:40.943Z,27.90
2018-08-13T00:52:10.211Z,27.90
2018-08-13T00:54:39.500Z,27.90
2018-08-13T00:57:08.771Z,27.90
2018-08-13T00:59:38.056Z,27.90
2018-08-13T01:02:07.589Z,27.90
2018-08-13T01:04:37.342Z,27.90
2018-08-13T01:07:06.698Z,27.90
2018-08-13T01:09:35.986Z,27.80
2018-08-13T01:12:05.405Z,27.90
2018-08-13T01:14:34.750Z,27.90
2018-08-13T01:17:04.121Z,27.80
2018-08-13T01:19:33.493Z,27.80
2018-08-13T01:22:02.963Z,27.90
2018-08-13T01:24:32.316Z,27.80
2018-08-13T01:27:01.579Z,27.90
2018-08-13T01:29:30.982Z,27.90
2018-08-13T01:32:00.398Z,27.90
2018-08-13T01:34:29.735Z,27.90
2018-08-13T01:36:58.976Z,27.90
2018-08-13T01:39:28.560Z,28.00
2018-08-13T01:41:57.953Z,27.90
2018-08-13T01:44:27.267Z,27.90
2018-08-13T01:46:56.533Z,27.90
2018-08-13T01:49:25.916Z,27.90
2018-08-13T01:51:55.210Z,27.90
2018-08-13T01:54:24.461Z,27.90
2018-08-13T01:56:53.872Z,27.90
2018-08-13T01:59:23.126Z,27.90
2018-08-13T02:01:52.460Z,27.90
2018-08-13T02:04:21.775Z,27.90
2018-08-13T02:06:51.091Z,27.90
2018-08-13T02:09:20.444Z,27.90
2018-08-13T02:11:49.853Z,27.80
2018-08-13T02:14:19.167Z,27.90
2018-08-13T02:16:48.547Z,27.90
2018-08-13T02:19:17.939Z,27.90
2018-08-13T02:21:47.499Z,27.80
2018-08-13T02:24:16.830Z,27.80
2018-08-13T02:26:46.306Z,27.80
2018-08-13T02:29:15.670Z,27.80
2018-08-13T02:31:45.089Z,27.80
2018-08-13T02:34:14.407Z,27.80
2018-08-13T02:36:43.752Z,27.80
2018-08-13T02:39:13.529Z,27.80
2018-08-13T02:41:43.007Z,27.80
2018-08-13T02:44:12.561Z,27.90
2018-08-13T02:46:41.912Z,27.90
2018-08-13T02:49:11.335Z,27.90
2018-08-13T02:51:40.751Z,27.90
2018-08-13T02:54:10.082Z,27.90
2018-08-13T02:56:39.387Z,27.90
2018-08-13T02:59:08.696Z,27.90
2018-08-13T03:01:38.004Z,27.90
2018-08-13T03:04:07.432Z,27.90
2018-08-13T03:06:36.678Z,27.90
2018-08-13T03:09:09.608Z,27.90
2018-08-13T03:11:39.205Z,27.90
2018-08-13T03:14:08.604Z,27.80
2018-08-13T03:16:37.936Z,27.90
2018-08-13T03:19:07.426Z,27.80
2018-08-13T03:21:36.766Z,27.80
2018-08-13T03:24:06.227Z,27.80
2018-08-13T03:26:35.656Z,27.80
2018-08-13T03:29:05.017Z,27.80
2018-08-13T03:31:34.429Z,27.80
2018-08-13T03:34:03.780Z,27.80
2018-08-13T03:36:33.052Z,27.80
2018-08-13T03:39:02.425Z,27.80
2018-08-13T03:41:31.724Z,27.80
2018-08-13T03:44:01.077Z,27.80
2018-08-13T03:46:30.348Z,27.80
2018-08-13T03:48:59.717Z,27.80
2018-08-13T03:51:29.134Z,27.90
2018-08-13T03:53:58.443Z,27.80
2018-08-13T03:56:27.849Z,27.80
2018-08-13T03:58:57.127Z,27.80
2018-08-13T04:01:26.404Z,27.90
2018-08-13T04:03:55.899Z,27.90
2018-08-13T04:06:25.221Z,27.80
2018-08-13T04:08:54.538Z,27.80
2018-08-13T04:11:23.854Z,27.80
2018-08-13T04:13:53.219Z,27.80
2018-08-13T04:16:22.596Z,27.80
2018-08-13T04:18:52.719Z,27.80
2018-08-13T04:21:22.027Z,27.80
2018-08-13T04:23:51.397Z,27.80
2018-08-13T04:26:20.822Z,27.80
2018-08-13T04:28:50.274Z,27.80
2018-08-13T04:31:19.598Z,27.80
2018-08-13T04:33:48.930Z,27.70
2018-08-13T04:36:18.254Z,27.80
2018-08-13T04:38:47.590Z,27.70
2018-08-13T04:41:16.827Z,27.70
2018-08-13T04:43:46.167Z,27.70
2018-08-13T04:46:15.479Z,27.70
2018-08-13T04:48:44.742Z,27.70
2018-08-13T04:51:14.127Z,27.60
2018-08-13T04:53:43.418Z,27.60
2018-08-13T04:56:12.688Z,27.70
2018-08-13T04:58:42.066Z,27.70
2018-08-13T05:01:11.371Z,27.70
2018-08-13T05:03:40.656Z,27.70
2018-08-13T05:06:09.986Z,27.70
2018-08-13T05:08:39.303Z,27.60
2018-08-13T05:11:08.574Z,27.60
2018-08-13T05:13:37.888Z,27.60
2018-08-13T05:16:07.183Z,27.60
2018-08-13T05:18:36.479Z,27.60
2018-08-13T05:21:05.843Z,27.60
2018-08-13T05:23:35.186Z,27.60
2018-08-13T05:26:04.530Z,27.60
2018-08-13T05:28:33.811Z,27.60
2018-08-13T05:31:03.212Z,27.50
2018-08-13T05:33:32.759Z,27.50
2018-08-13T05:36:02.147Z,27.60
2018-08-13T05:38:31.491Z,27.50
2018-08-13T05:41:00.844Z,27.60
2018-08-13T05:43:30.181Z,27.50
2018-08-13T05:45:59.457Z,27.50
2018-08-13T05:48:28.799Z,27.50
2018-08-13T05:50:58.086Z,27.50
2018-08-13T05:53:27.398Z,27.40
2018-08-13T05:55:56.871Z,27.40
2018-08-13T05:58:26.135Z,27.40
2018-08-13T06:00:55.447Z,27.40
2018-08-13T06:03:24.752Z,27.40
2018-08-13T06:05:54.125Z,27.40
2018-08-13T06:08:23.424Z,27.40
2018-08-13T06:10:52.893Z,27.40
2018-08-13T06:13:22.203Z,27.40
2018-08-13T06:15:51.661Z,27.40
2018-08-13T06:18:21.087Z,27.50
2018-08-13T06:20:50.420Z,27.40
2018-08-13T06:23:19.789Z,27.50
2018-08-13T06:25:49.115Z,27.40
2018-08-13T06:28:19.944Z,27.50
2018-08-13T06:30:49.243Z,27.50
2018-08-13T06:33:18.539Z,27.50
2018-08-13T06:35:47.952Z,27.50
2018-08-13T06:38:17.259Z,27.50
2018-08-13T06:40:46.534Z,27.50
2018-08-13T06:43:16.029Z,27.60
2018-08-13T06:45:45.480Z,27.50
2018-08-13T06:48:14.832Z,27.60
2018-08-13T06:50:44.255Z,27.60
2018-08-13T06:53:13.585Z,27.60
2018-08-13T06:55:43.022Z,27.60
2018-08-13T06:58:12.665Z,27.60
2018-08-13T07:00:42.175Z,27.60
2018-08-13T07:03:11.532Z,27.70
2018-08-13T07:05:40.845Z,27.70
2018-08-13T07:08:10.364Z,27.70
2018-08-13T07:10:39.734Z,27.70
2018-08-13T07:13:09.182Z,27.70
2018-08-13T07:15:38.662Z,27.80
2018-08-13T07:18:08.008Z,27.80
2018-08-13T07:20:37.528Z,27.80
2018-08-13T07:23:06.931Z,27.80
2018-08-13T07:25:36.314Z,27.80
2018-08-13T07:28:05.797Z,27.80
2018-08-13T07:30:35.152Z,27.80
2018-08-13T07:33:04.861Z,27.90
2018-08-13T07:35:34.214Z,27.80
2018-08-13T07:38:03.699Z,27.80
2018-08-13T07:40:33.041Z,27.80
2018-08-13T07:43:02.503Z,27.80
2018-08-13T07:45:31.823Z,27.80
2018-08-13T07:48:01.216Z,27.80
2018-08-13T07:50:30.671Z,27.80
2018-08-13T07:53:00.048Z,27.90
2018-08-13T07:57:54.089Z,27.90
2018-08-13T08:00:23.575Z,27.90
2018-08-13T08:02:52.897Z,27.90
2018-08-13T08:05:22.237Z,28.00
2018-08-13T08:07:51.667Z,28.00
2018-08-13T08:10:21.005Z,28.00
2018-08-13T08:12:50.450Z,28.00
2018-08-13T08:15:20.626Z,28.00
2018-08-13T08:17:50.091Z,28.00
2018-08-13T08:20:19.394Z,28.00
2018-08-13T08:22:48.874Z,28.10
2018-08-13T08:25:20.287Z,28.10
2018-08-13T08:27:49.810Z,28.10
2018-08-13T08:30:19.421Z,28.20
2018-08-13T08:32:48.812Z,28.30
2018-08-13T08:35:18.681Z,28.30
2018-08-13T08:37:48.147Z,28.40
2018-08-13T08:40:19.622Z,28.40
2018-08-13T08:42:49.740Z,28.30
2018-08-13T08:45:21.724Z,28.40
2018-08-13T08:47:51.873Z,28.40
2018-08-13T08:50:21.223Z,28.40
2018-08-13T08:52:50.713Z,28.40
2018-08-13T08:55:20.244Z,28.40
2018-08-13T08:57:50.798Z,28.50
2018-08-13T09:00:22.579Z,28.50
2018-08-13T09:02:52.054Z,28.50
2018-08-13T09:05:21.570Z,28.50
2018-08-13T09:07:50.921Z,28.50
2018-08-13T09:10:20.779Z,28.50
2018-08-13T09:12:50.188Z,28.50
2018-08-13T09:15:19.573Z,28.50
2018-08-13T09:18:00.275Z,28.50
2018-08-13T09:20:40.463Z,28.50
2018-08-13T09:23:20.653Z,28.50
2018-08-13T09:26:00.885Z,28.40
2018-08-13T09:28:41.270Z,28.40
2018-08-13T09:31:19.848Z,28.40
2018-08-13T09:34:00.019Z,28.40
2018-08-13T09:36:29.534Z,28.40
2018-08-13T09:38:58.809Z,28.40
2018-08-13T09:41:28.164Z,28.40
2018-08-13T09:43:57.501Z,28.30
2018-08-13T09:46:26.837Z,28.30
2018-08-13T09:48:56.143Z,28.30
2018-08-13T09:51:25.538Z,28.20
2018-08-13T09:53:55.039Z,28.20
2018-08-13T09:56:24.354Z,28.30
2018-08-13T09:58:53.700Z,28.40
2018-08-13T10:01:23.086Z,28.40
2018-08-13T10:03:52.440Z,28.40
2018-08-13T10:06:21.802Z,28.40
2018-08-13T10:08:51.221Z,28.30
2018-08-13T10:11:20.514Z,28.40
2018-08-13T10:13:49.886Z,28.30
2018-08-13T10:16:19.334Z,28.30
2018-08-13T10:18:48.654Z,28.30
2018-08-13T10:21:17.991Z,28.30
2018-08-13T10:23:47.335Z,28.30
2018-08-13T10:26:16.696Z,28.30
2018-08-13T10:28:45.974Z,28.30
2018-08-13T10:31:15.268Z,28.30
2018-08-13T10:33:44.550Z,28.40
2018-08-13T10:36:14.041Z,28.50
2018-08-13T10:38:43.385Z,28.60
2018-08-13T10:41:12.647Z,28.80
2018-08-13T10:43:41.928Z,28.80
2018-08-13T10:46:11.338Z,28.90
2018-08-13T10:48:40.707Z,29.00
2018-08-13T10:51:10.123Z,29.00
2018-08-13T10:53:39.448Z,29.10
2018-08-13T10:56:08.878Z,29.10
2018-08-13T10:58:38.383Z,29.10
2018-08-13T11:01:08.116Z,29.20
2018-08-13T11:03:37.395Z,29.20
2018-08-13T11:06:07.950Z,29.20
2018-08-13T11:08:46.852Z,29.00
2018-08-13T11:11:16.377Z,28.90
2018-08-13T11:13:45.658Z,28.80
2018-08-13T11:16:15.072Z,28.70
2018-08-13T11:18:45.601Z,28.70
2018-08-13T11:21:14.982Z,28.70
2018-08-13T11:23:44.343Z,28.70
2018-08-13T11:26:13.887Z,28.70
2018-08-13T11:28:43.186Z,28.70
2018-08-13T11:31:12.563Z,28.70
2018-08-13T11:33:41.932Z,28.60
2018-08-13T11:36:11.163Z,28.60
2018-08-13T11:38:41.486Z,28.60
2018-08-13T11:41:10.871Z,28.50
2018-08-13T11:43:41.174Z,28.40
2018-08-13T11:46:10.675Z,28.50
2018-08-13T11:48:40.092Z,28.50
2018-08-13T11:51:09.388Z,28.40
2018-08-13T11:53:38.734Z,28.40
2018-08-13T11:56:08.346Z,28.40
2018-08-13T11:58:37.802Z,28.40
2018-08-13T12:01:07.406Z,28.30
2018-08-13T12:03:36.771Z,28.40
2018-08-13T12:06:06.083Z,28.40
2018-08-13T12:08:35.629Z,28.50
2018-08-13T12:11:05.095Z,28.40
2018-08-13T12:13:34.364Z,28.40
2018-08-13T12:16:03.762Z,28.40
2018-08-13T12:18:33.146Z,28.40
2018-08-13T12:21:03.021Z,28.30
2018-08-13T12:23:32.484Z,28.30
2018-08-13T12:26:01.922Z,28.40
2018-08-13T12:28:31.176Z,28.40
2018-08-13T12:31:00.919Z,28.40
2018-08-13T12:33:30.499Z,28.40
2018-08-13T12:36:00.191Z,28.30
2018-08-13T12:38:29.562Z,28.30
2018-08-13T12:40:59.079Z,28.30
2018-08-13T12:43:28.580Z,28.20
2018-08-13T12:45:57.879Z,28.20
2018-08-13T12:48:27.246Z,28.20
2018-08-13T12:50:56.623Z,28.10
2018-08-13T12:53:25.915Z,28.10
2018-08-13T12:55:55.255Z,28.10
2018-08-13T12:58:24.634Z,28.10
2018-08-13T13:01:00.183Z,28.10
2018-08-13T13:03:29.940Z,28.00
2018-08-13T13:05:59.270Z,28.00
2018-08-13T13:08:28.581Z,28.00
2018-08-13T13:10:57.896Z,28.00
2018-08-13T13:13:27.314Z,27.90
2018-08-13T13:15:56.654Z,27.90
2018-08-13T13:18:26.168Z,27.90
2018-08-13T13:20:55.547Z,28.00
2018-08-13T13:23:24.850Z,27.90
2018-08-13T13:25:54.548Z,27.90
2018-08-13T13:28:23.983Z,27.90
2018-08-13T13:30:53.355Z,27.90
2018-08-13T13:33:22.666Z,27.90
2018-08-13T13:35:52.034Z,27.90
2018-08-13T13:38:21.413Z,27.90
2018-08-13T13:40:50.854Z,27.90
2018-08-13T13:43:20.216Z,28.00
2018-08-13T13:45:49.701Z,28.00
2018-08-13T13:48:19.083Z,28.00
2018-08-13T13:50:48.445Z,28.10
2018-08-13T13:53:17.828Z,28.00
2018-08-13T13:55:47.137Z,27.90
2018-08-13T13:58:16.481Z,27.90
2018-08-13T14:00:45.898Z,27.80
2018-08-13T14:03:15.164Z,27.90
2018-08-13T14:05:44.542Z,27.90
2018-08-13T14:08:13.914Z,27.80
2018-08-13T14:10:43.231Z,27.80
2018-08-13T14:13:12.533Z,27.70
2018-08-13T14:15:41.984Z,27.80
2018-08-13T14:18:11.423Z,27.70
2018-08-13T14:20:40.845Z,27.70
2018-08-13T14:23:10.392Z,27.70
2018-08-13T14:25:39.878Z,27.60
2018-08-13T14:28:09.233Z,27.60
2018-08-13T14:30:38.518Z,27.60
2018-08-13T14:33:08.178Z,27.50
2018-08-13T14:35:37.489Z,27.40
2018-08-13T14:38:06.963Z,27.50
2018-08-13T14:40:36.354Z,27.50
2018-08-13T14:43:05.881Z,27.60
2018-08-13T14:45:35.260Z,27.60
2018-08-13T14:48:04.895Z,27.60
2018-08-13T14:50:34.326Z,27.50
2018-08-13T14:53:03.631Z,27.50
2018-08-13T14:55:33.149Z,27.50
2018-08-13T14:58:02.945Z,27.40
2018-08-13T15:00:32.507Z,27.30
2018-08-13T15:03:02.025Z,27.30
2018-08-13T15:05:31.390Z,27.30
2018-08-13T15:08:00.731Z,27.30
2018-08-13T15:10:30.093Z,27.30
2018-08-13T15:12:59.517Z,27.30
2018-08-13T15:15:28.905Z,27.30
2018-08-13T15:17:58.342Z,27.20
2018-08-13T15:20:29.996Z,27.20
2018-08-13T15:22:59.379Z,27.20
2018-08-13T15:25:29.346Z,27.30
2018-08-13T15:27:58.668Z,27.30
2018-08-13T15:30:28.240Z,27.30
2018-08-13T15:32:57.726Z,27.30
2018-08-13T15:35:27.154Z,27.30
2018-08-13T15:37:56.478Z,27.30
2018-08-13T15:40:25.818Z,27.30
2018-08-13T15:42:55.258Z,27.30
2018-08-13T15:45:25.077Z,27.30
2018-08-13T15:47:54.501Z,27.30
2018-08-13T15:50:24.434Z,27.20
2018-08-13T15:52:53.990Z,27.20
2018-08-13T15:55:23.327Z,27.20
2018-08-13T15:57:52.587Z,27.20
2018-08-13T16:00:24.461Z,27.20
2018-08-13T16:02:53.933Z,27.20
2018-08-13T16:05:23.344Z,27.20
2018-08-13T16:07:53.171Z,27.20
2018-08-13T16:10:22.670Z,27.20
2018-08-13T16:12:52.279Z,27.20
2018-08-13T16:15:21.546Z,27.10
2018-08-13T16:17:50.821Z,27.10
2018-08-13T16:20:20.601Z,27.20
2018-08-13T16:22:50.321Z,27.20
2018-08-13T16:25:19.755Z,27.20
2018-08-13T16:27:49.164Z,27.20
2018-08-13T16:30:20.400Z,27.20
2018-08-13T16:32:50.054Z,27.20
2018-08-13T16:35:19.885Z,27.20
2018-08-13T16:37:49.512Z,27.20
2018-08-13T16:40:19.512Z,27.20
2018-08-13T16:42:49.582Z,27.20
2018-08-13T16:45:19.971Z,27.20
2018-08-13T16:47:49.343Z,27.20
2018-08-13T16:50:23.723Z,27.20
2018-08-13T16:52:53.300Z,27.10
2018-08-13T16:55:22.820Z,27.00
2018-08-13T16:57:52.218Z,27.00
2018-08-13T17:00:25.612Z,27.00
2018-08-13T17:02:55.252Z,27.00
2018-08-13T17:05:24.804Z,26.90
2018-08-13T17:07:54.231Z,26.90
2018-08-13T17:10:25.469Z,26.80
2018-08-13T17:12:55.447Z,26.80
2018-08-13T17:15:25.650Z,26.70
2018-08-13T17:17:56.426Z,26.70
2018-08-13T17:20:28.757Z,26.70
2018-08-13T17:22:58.646Z,26.70
2018-08-13T17:25:28.291Z,26.70
2018-08-13T17:27:57.841Z,26.70
2018-08-13T17:30:27.918Z,26.70
2018-08-13T17:32:59.011Z,26.70
2018-08-13T17:35:30.111Z,26.60
2018-08-13T17:38:00.655Z,26.50
2018-08-13T17:40:30.412Z,26.60
2018-08-13T17:43:01.002Z,26.50
2018-08-13T17:45:30.497Z,26.50
2018-08-13T17:47:59.828Z,26.50
2018-08-13T17:50:29.350Z,26.50
2018-08-13T17:52:58.650Z,26.50
2018-08-13T17:55:28.069Z,26.50
2018-08-13T17:57:57.393Z,26.60
2018-08-13T18:00:27.734Z,26.60
2018-08-13T18:02:57.149Z,26.60
2018-08-13T18:05:27.743Z,26.70
2018-08-13T18:07:57.892Z,26.70
2018-08-13T18:10:30.297Z,26.60
2018-08-13T18:13:01.905Z,26.60
2018-08-13T18:15:31.783Z,26.60
2018-08-13T18:18:01.110Z,26.60
2018-08-13T18:20:30.440Z,26.60
2018-08-13T18:22:59.838Z,26.60
2018-08-13T18:25:29.140Z,26.60
2018-08-13T18:27:58.598Z,26.60
2018-08-13T18:30:29.114Z,26.50
2018-08-13T18:32:58.503Z,26.50
2018-08-13T18:35:27.942Z,26.50
2018-08-13T18:37:57.393Z,26.50
2018-08-13T18:40:31.750Z,26.50
2018-08-13T18:43:01.132Z,26.50
2018-08-13T18:45:30.560Z,26.50
2018-08-13T18:48:00.376Z,26.50
2018-08-13T18:50:29.763Z,26.50
2018-08-13T18:52:59.068Z,26.50
2018-08-13T18:55:28.525Z,26.50
2018-08-13T18:57:57.952Z,26.40
2018-08-13T19:00:29.167Z,26.30
2018-08-13T19:03:00.611Z,26.40
2018-08-13T19:05:30.501Z,26.30
2018-08-13T19:07:59.719Z,26.30
2018-08-13T19:10:29.067Z,26.30
2018-08-13T19:12:58.517Z,26.30
2018-08-13T19:15:28.584Z,26.30
2018-08-13T19:17:57.968Z,26.40
2018-08-13T19:20:27.213Z,26.40
2018-08-13T19:22:56.530Z,26.40
2018-08-13T19:25:27.852Z,26.40
2018-08-13T19:27:57.243Z,26.40
2018-08-13T19:30:26.954Z,26.40
2018-08-13T19:32:56.376Z,26.40
2018-08-13T19:35:25.702Z,26.40
2018-08-13T19:37:54.991Z,26.40
2018-08-13T19:40:25.818Z,26.50
2018-08-13T19:42:55.324Z,26.50
2018-08-13T19:45:25.016Z,26.50
2018-08-13T19:47:54.775Z,26.50
2018-08-13T19:50:24.248Z,26.50
2018-08-13T19:52:53.663Z,26.50
2018-08-13T19:55:23.515Z,26.50
2018-08-13T19:57:52.905Z,26.50
2018-08-13T20:00:26.158Z,26.50
2018-08-13T20:02:55.873Z,26.50
2018-08-13T20:05:26.583Z,26.50
2018-08-13T20:07:56.200Z,26.50
2018-08-13T20:10:25.657Z,26.50
2018-08-13T20:12:55.222Z,26.50
2018-08-13T20:15:24.590Z,26.50
2018-08-13T20:17:53.987Z,26.50
2018-08-13T20:20:23.527Z,26.50
2018-08-13T20:22:52.852Z,26.50
2018-08-13T20:25:22.401Z,26.50
2018-08-13T20:27:52.118Z,26.50
2018-08-13T20:30:22.741Z,26.50
2018-08-13T20:32:53.172Z,26.50
2018-08-13T20:35:22.570Z,26.50
2018-08-13T20:37:51.893Z,26.50
2018-08-13T20:40:22.179Z,26.40
2018-08-13T20:42:51.771Z,26.40
2018-08-13T20:45:22.176Z,26.40
2018-08-13T20:47:51.602Z,26.40
2018-08-13T20:50:22.338Z,26.40
2018-08-13T20:52:52.710Z,26.40
2018-08-13T20:55:26.554Z,26.30
2018-08-13T20:57:55.995Z,26.40
2018-08-13T21:00:27.118Z,26.40
2018-08-13T21:02:56.654Z,26.40
2018-08-13T21:05:25.926Z,26.40
2018-08-13T21:07:55.439Z,26.40
2018-08-13T21:10:25.815Z,26.50
2018-08-13T21:12:55.356Z,26.50
2018-08-13T21:15:24.807Z,26.50
2018-08-13T21:17:54.343Z,26.50
2018-08-13T21:20:28.041Z,26.50
2018-08-13T21:22:57.775Z,26.60
2018-08-13T21:25:27.258Z,26.60
2018-08-13T21:27:56.686Z,26.50
2018-08-13T21:30:26.929Z,26.60
2018-08-13T21:32:56.306Z,26.60
2018-08-13T21:35:26.376Z,26.70
2018-08-13T21:37:56.178Z,26.60
2018-08-13T21:40:25.557Z,26.60
2018-08-13T21:42:55.071Z,26.60
2018-08-13T21:45:24.473Z,26.60
2018-08-13T21:47:53.882Z,26.60
2018-08-13T21:50:23.760Z,26.60
2018-08-13T21:52:53.097Z,26.70
2018-08-13T21:55:22.491Z,26.70
2018-08-13T21:57:51.844Z,26.80
2018-08-13T22:00:28.366Z,26.80
2018-08-13T22:02:59.311Z,26.70
2018-08-13T22:05:28.944Z,26.70
2018-08-13T22:07:58.688Z,26.60
2018-08-13T22:10:28.247Z,26.60
2018-08-13T22:12:57.707Z,26.70
2018-08-13T22:15:30.948Z,26.70
2018-08-13T22:18:03.795Z,26.70
2018-08-13T22:20:34.512Z,26.80
2018-08-13T22:23:06.217Z,26.70
2018-08-13T22:25:40.003Z,26.60
2018-08-13T22:28:10.677Z,26.60
2018-08-13T22:30:40.357Z,26.70
2018-08-13T22:33:11.191Z,26.70
2018-08-13T22:35:41.088Z,26.70
2018-08-13T22:38:10.687Z,26.70
2018-08-13T22:40:40.849Z,26.70
2018-08-13T22:43:10.415Z,26.70
2018-08-13T22:45:40.430Z,26.70
2018-08-13T22:48:09.952Z,26.60
2018-08-13T22:50:39.928Z,26.60
2018-08-13T22:53:09.438Z,26.60
2018-08-13T22:55:38.887Z,26.70
2018-08-13T22:58:08.372Z,26.60
2018-08-13T23:00:37.731Z,26.60
2018-08-13T23:03:07.667Z,26.60
2018-08-13T23:05:37.013Z,26.60
2018-08-13T23:08:06.841Z,26.60
2018-08-13T23:10:39.507Z,26.60
2018-08-13T23:13:16.744Z,26.50
2018-08-13T23:15:52.126Z,26.50
2018-08-13T23:18:28.832Z,26.50
2018-08-13T23:21:01.726Z,26.50
2018-08-13T23:23:32.967Z,26.50
2018-08-13T23:26:04.199Z,26.50
2018-08-13T23:28:37.493Z,26.50
2018-08-13T23:31:10.366Z,26.50
2018-08-13T23:33:39.903Z,26.50
2018-08-13T23:36:09.207Z,26.50
2018-08-13T23:38:38.520Z,26.50
2018-08-13T23:41:08.368Z,26.60
2018-08-13T23:43:37.721Z,26.60
2018-08-13T23:46:07.031Z,26.60
2018-08-13T23:48:36.546Z,26.60
2018-08-13T23:51:05.987Z,26.60
2018-08-13T23:53:35.519Z,26.60
2018-08-13T23:56:05.006Z,26.50
2018-08-13T23:58:34.287Z,26.60
